Time;durP1;ratioP1;P1;durP2;ratioP2;P2;SDS_P1;SDS_P2;PMS_P1;PMS_P2;Temp;Humidity;BMP_temperature;BMP_pressure;BME280_temperature;BME280_humidity;BME280_pressure;Samples;Min_cycle;Max_cycle;Signal;HPM_P1;HPM_P2
2022/12/01 00:00:55;;;;;;;103.65;45.65;;;6.40;99.90;;;;;;5069120;28;20046;-59
2022/12/01 00:03:21;;;;;;;92.32;42.67;;;6.40;99.90;;;;;;5068278;28;20118;-60
2022/12/01 00:05:56;;;;;;;92.22;44.83;;;6.40;99.90;;;;;;5059224;28;21515;-60
2022/12/01 00:08:21;;;;;;;94.47;45.47;;;6.40;99.90;;;;;;5069115;28;20024;-60
2022/12/01 00:10:47;;;;;;;98.47;45.88;;;6.50;99.90;;;;;;5032995;28;20105;-60
2022/12/01 00:13:13;;;;;;;90.68;41.40;;;6.40;99.90;;;;;;5061539;28;20441;-60
2022/12/01 00:15:38;;;;;;;104.85;46.08;;;6.40;99.90;;;;;;5079512;28;20047;-60
2022/12/01 00:18:04;;;;;;;97.28;45.58;;;6.40;99.90;;;;;;5059601;28;20035;-60
2022/12/01 00:20:33;;;;;;;83.20;40.40;;;6.40;99.90;;;;;;5062663;28;20085;-60
2022/12/01 00:22:59;;;;;;;88.00;42.88;;;6.40;99.90;;;;;;5065111;28;20490;-60
2022/12/01 00:25:24;;;;;;;80.35;42.17;;;6.30;99.90;;;;;;5068720;28;20048;-60
2022/12/01 00:27:51;;;;;;;86.35;40.10;;;6.40;99.90;;;;;;5050321;28;20406;-60
2022/12/01 00:30:19;;;;;;;82.10;39.00;;;6.30;99.90;;;;;;5064438;28;20047;-60
2022/12/01 00:32:46;;;;;;;82.45;38.70;;;6.40;99.90;;;;;;5064642;28;20081;-60
2022/12/01 00:35:12;;;;;;;98.40;47.13;;;6.40;99.90;;;;;;5060301;28;20129;-59
2022/12/01 00:37:38;;;;;;;95.32;44.03;;;6.30;99.90;;;;;;5064732;28;20482;-60
2022/12/01 00:40:06;;;;;;;90.57;42.72;;;6.30;99.90;;;;;;5080208;28;20047;-60
2022/12/01 00:42:31;;;;;;;98.53;46.50;;;6.30;99.90;;;;;;5066658;28;20043;-60
2022/12/01 00:44:57;;;;;;;83.90;39.35;;;6.30;99.90;;;;;;5069095;28;20048;-60
2022/12/01 00:47:23;;;;;;;91.60;42.38;;;6.30;99.90;;;;;;5088138;28;20075;-60
2022/12/01 00:49:48;;;;;;;90.70;41.33;;;6.30;99.90;;;;;;5061236;28;20051;-60
2022/12/01 00:52:16;;;;;;;98.38;45.33;;;6.30;99.90;;;;;;5059717;28;20039;-60
2022/12/01 00:54:42;;;;;;;102.90;44.90;;;6.30;99.90;;;;;;5071246;28;20044;-60
2022/12/01 00:57:08;;;;;;;85.15;42.00;;;6.30;99.90;;;;;;5069004;28;20072;-60
2022/12/01 00:59:34;;;;;;;72.00;35.30;;;6.30;99.90;;;;;;5089771;28;20521;-60
2022/12/01 01:02:01;;;;;;;99.38;45.55;;;6.30;99.90;;;;;;5078523;28;20494;-60
2022/12/01 01:04:29;;;;;;;86.20;41.13;;;6.30;99.90;;;;;;5050156;28;20040;-59
2022/12/01 01:06:55;;;;;;;75.75;37.10;;;6.30;99.90;;;;;;5055998;28;20040;-59
2022/12/01 01:09:20;;;;;;;79.70;39.42;;;6.30;99.90;;;;;;5060843;28;20341;-60
2022/12/01 01:11:46;;;;;;;95.22;44.92;;;6.30;99.90;;;;;;5062644;28;22197;-60
2022/12/01 01:14:12;;;;;;;93.45;43.42;;;6.30;99.90;;;;;;5072700;28;20043;-60
2022/12/01 01:16:38;;;;;;;100.10;43.90;;;6.30;99.90;;;;;;5058774;28;20032;-60
2022/12/01 01:19:03;;;;;;;81.32;40.45;;;6.30;99.90;;;;;;5059036;28;20692;-60
2022/12/01 01:21:29;;;;;;;79.22;37.42;;;6.30;99.90;;;;;;5060451;28;20423;-60
2022/12/01 01:23:55;;;;;;;101.30;45.67;;;6.30;99.90;;;;;;5046123;28;20046;-59
2022/12/01 01:26:23;;;;;;;83.82;41.00;;;6.30;99.90;;;;;;5050379;28;20121;-59
2022/12/01 01:28:50;;;;;;;86.68;42.60;;;6.30;99.90;;;;;;5081022;28;20499;-60
2022/12/01 01:31:19;;;;;;;104.60;46.03;;;6.30;99.90;;;;;;5059559;28;20036;-60
2022/12/01 01:33:46;;;;;;;85.43;39.88;;;6.30;99.90;;;;;;5038455;28;20529;-60
2022/12/01 01:36:13;;;;;;;99.97;45.47;;;6.40;99.90;;;;;;5056871;28;20040;-60
2022/12/01 01:38:38;;;;;;;94.07;43.10;;;6.40;99.90;;;;;;5062937;28;20414;-60
2022/12/01 01:41:05;;;;;;;105.88;44.28;;;6.30;99.90;;;;;;5062659;28;20040;-60
2022/12/01 01:43:53;;;;;;;91.88;41.70;;;6.40;99.90;;;;;;5065545;28;20048;-60
2022/12/01 01:46:25;;;;;;;100.95;45.42;;;6.40;99.90;;;;;;5064743;28;20051;-60
2022/12/01 01:48:59;;;;;;;91.53;42.65;;;6.30;99.90;;;;;;5052991;28;20101;-60
2022/12/01 01:51:49;;;;;;;110.35;46.47;;;6.30;99.90;;;;;;5061145;28;20047;-60
2022/12/01 01:54:32;;;;;;;99.63;44.45;;;6.30;99.90;;;;;;5069856;28;20071;-60
2022/12/01 01:57:00;;;;;;;96.70;43.43;;;6.30;99.90;;;;;;5088265;28;20036;-60
2022/12/01 01:59:32;;;;;;;101.25;46.55;;;6.20;99.90;;;;;;5087763;28;20278;-60
2022/12/01 02:02:07;;;;;;;106.53;46.35;;;6.30;99.90;;;;;;5086749;28;20111;-60
2022/12/01 02:04:39;;;;;;;105.55;47.03;;;6.30;99.90;;;;;;5075510;28;20123;-60
2022/12/01 02:07:06;;;;;;;109.57;46.78;;;6.20;99.90;;;;;;5072069;28;20082;-60
2022/12/01 02:09:32;;;;;;;102.32;43.85;;;6.20;99.90;;;;;;5063741;28;20049;-58
2022/12/01 02:12:16;;;;;;;103.40;45.47;;;6.30;99.90;;;;;;5066827;28;20582;-60
2022/12/01 02:14:54;;;;;;;;;;;6.30;99.90;;;;;;5069931;28;20064;-60
2022/12/01 02:17:44;;;;;;;84.75;38.33;;;6.20;99.90;;;;;;5082093;28;19916;-60
2022/12/01 02:20:49;;;;;;;82.20;37.00;;;6.20;99.90;;;;;;5081254;28;20040;-60
2022/12/01 02:23:50;;;;;;;80.40;36.88;;;6.20;99.90;;;;;;5045815;28;20170;-60
2022/12/01 02:26:34;;;;;;;87.85;40.55;;;6.30;99.90;;;;;;5082998;28;20474;-60
2022/12/01 02:29:18;;;;;;;90.40;39.97;;;6.30;99.90;;;;;;5063056;28;20048;-60
2022/12/01 02:32:16;;;;;;;78.57;37.28;;;6.30;99.90;;;;;;5065207;28;20067;-60
2022/12/01 02:35:09;;;;;;;104.53;44.05;;;6.30;99.90;;;;;;5060196;28;20263;-60
2022/12/01 02:37:54;;;;;;;85.38;39.47;;;6.30;99.90;;;;;;5064930;28;20087;-60
2022/12/01 02:40:29;;;;;;;105.78;46.65;;;6.30;99.90;;;;;;5060269;28;20028;-60
2022/12/01 02:43:31;;;;;;;99.60;43.63;;;6.30;99.90;;;;;;5047230;28;20040;-60
2022/12/01 02:46:03;;;;;;;118.40;49.22;;;6.30;99.90;;;;;;5067011;28;20048;-60
2022/12/01 02:48:35;;;;;;;107.20;45.05;;;6.30;99.90;;;;;;5079065;28;20396;-60
2022/12/01 02:51:12;;;;;;;119.53;47.78;;;6.30;99.90;;;;;;5068686;28;20044;-60
2022/12/01 02:53:37;;;;;;;99.28;42.40;;;6.30;99.90;;;;;;5064654;28;20044;-60
2022/12/01 02:56:08;;;;;;;123.68;49.65;;;6.30;99.90;;;;;;5069321;28;20948;-59
2022/12/01 02:58:34;;;;;;;101.47;44.55;;;6.30;99.90;;;;;;5084623;28;20309;-60
2022/12/01 03:01:20;;;;;;;99.15;43.80;;;6.10;99.90;;;;;;5065140;28;20279;-60
2022/12/01 03:03:54;;;;;;;87.53;39.95;;;6.30;99.90;;;;;;5057354;28;20051;-60
2022/12/01 03:06:49;;;;;;;106.03;46.83;;;6.30;99.90;;;;;;5066001;28;20105;-60
2022/12/01 03:09:36;;;;;;;88.25;39.63;;;6.30;99.90;;;;;;5033848;28;20127;-60
2022/12/01 03:12:08;;;;;;;100.80;42.55;;;6.30;99.90;;;;;;5068764;28;20526;-60
2022/12/01 03:15:06;;;;;;;119.63;48.03;;;6.30;99.90;;;;;;5069455;28;20108;-60
2022/12/01 03:18:09;;;;;;;113.28;45.92;;;6.30;99.90;;;;;;5063335;28;20048;-60
2022/12/01 03:20:50;;;;;;;103.05;44.63;;;6.30;99.90;;;;;;5072017;28;20062;-60
2022/12/01 03:23:20;;;;;;;105.05;43.83;;;6.20;99.90;;;;;;5051494;28;20047;-60
2022/12/01 03:25:50;;;;;;;122.68;48.38;;;6.20;99.90;;;;;;5080815;28;20032;-60
2022/12/01 03:28:20;;;;;;;98.88;42.33;;;6.30;99.90;;;;;;5051019;28;20649;-60
2022/12/01 03:30:49;;;;;;;119.95;48.90;;;6.20;99.90;;;;;;5060243;28;20155;-60
2022/12/01 03:33:24;;;;;;;103.88;46.20;;;6.20;99.90;;;;;;5062408;28;20067;-60
2022/12/01 03:36:15;;;;;;;137.07;52.58;;;6.20;99.90;;;;;;5061257;28;20510;-60
2022/12/01 03:38:47;;;;;;;124.63;49.53;;;6.20;99.90;;;;;;5059489;28;20036;-60
2022/12/01 03:41:18;;;;;;;106.05;45.00;;;6.20;99.90;;;;;;5060550;28;20048;-60
2022/12/01 03:43:51;;;;;;;96.57;41.03;;;6.20;99.90;;;;;;5047947;28;20074;-60
2022/12/01 03:46:55;;;;;;;118.80;47.78;;;6.20;99.90;;;;;;5056406;28;20044;-60
2022/12/01 03:49:22;;;;;;;113.28;47.97;;;6.20;99.90;;;;;;4983229;28;20049;-60
2022/12/01 03:51:57;;;;;;;96.28;42.45;;;6.20;99.90;;;;;;5033694;28;20096;-60
2022/12/01 03:54:51;;;;;;;103.70;44.03;;;6.20;99.90;;;;;;5071326;28;20513;-60
2022/12/01 03:57:24;;;;;;;109.78;46.92;;;6.20;99.90;;;;;;5072568;28;20043;-59
2022/12/01 03:59:50;;;;;;;112.07;45.35;;;6.20;99.90;;;;;;5086487;28;20098;-60
2022/12/01 04:02:17;;;;;;;124.35;47.60;;;6.20;99.90;;;;;;5045936;28;20032;-60
2022/12/01 04:04:42;;;;;;;99.60;42.88;;;6.20;99.90;;;;;;5055274;28;20040;-60
2022/12/01 04:07:12;;;;;;;103.15;42.78;;;6.20;99.90;;;;;;5050736;28;20547;-60
2022/12/01 04:09:40;;;;;;;87.40;40.33;;;6.20;99.90;;;;;;5068875;28;20043;-60
2022/12/01 04:14:50;;;;;;;111.63;48.28;;;6.20;99.90;;;;;;5069597;28;20040;-60
2022/12/01 04:17:16;;;;;;;110.70;46.47;;;6.20;99.90;;;;;;5069937;28;20036;-60
2022/12/01 04:19:41;;;;;;;115.03;48.35;;;6.10;99.90;;;;;;5062180;28;20032;-60
2022/12/01 04:22:07;;;;;;;102.22;43.88;;;6.20;99.90;;;;;;5066518;28;20495;-60
2022/12/01 04:24:33;;;;;;;108.68;46.22;;;6.20;99.90;;;;;;5067063;28;20032;-59
2022/12/01 04:26:58;;;;;;;112.30;45.72;;;6.10;99.90;;;;;;5067036;28;20041;-60
2022/12/01 04:29:24;;;;;;;108.60;44.35;;;6.10;99.90;;;;;;5059441;28;20039;-60
2022/12/01 04:31:50;;;;;;;103.10;45.60;;;6.20;99.90;;;;;;5082145;28;20435;-59
2022/12/01 04:34:15;;;;;;;102.82;44.58;;;6.20;99.90;;;;;;5061164;28;20044;-59
2022/12/01 04:36:41;;;;;;;111.32;45.67;;;6.10;99.90;;;;;;5051311;28;20068;-60
2022/12/01 04:39:07;;;;;;;109.50;43.97;;;6.10;99.90;;;;;;5060762;28;20063;-59
2022/12/01 04:41:33;;;;;;;101.80;43.88;;;6.10;99.90;;;;;;5059594;28;20122;-59
2022/12/01 04:43:59;;;;;;;109.60;45.67;;;6.10;99.90;;;;;;5061703;28;20118;-60
2022/12/01 04:46:24;;;;;;;108.97;48.63;;;6.10;99.90;;;;;;5062879;28;20025;-57
2022/12/01 04:48:50;;;;;;;109.05;47.15;;;6.10;99.90;;;;;;5066762;28;20046;-60
2022/12/01 04:51:16;;;;;;;113.40;47.00;;;6.10;99.90;;;;;;5064210;28;20051;-59
2022/12/01 04:53:42;;;;;;;110.13;47.00;;;6.10;99.90;;;;;;5063429;28;20406;-60
2022/12/01 04:56:07;;;;;;;108.70;46.85;;;6.10;99.90;;;;;;5047714;28;20064;-59
2022/12/01 04:58:36;;;;;;;113.47;49.28;;;6.10;99.90;;;;;;5065866;28;20047;-60
2022/12/01 05:01:04;;;;;;;100.93;43.67;;;6.20;99.90;;;;;;5061412;28;20071;-60
2022/12/01 05:03:30;;;;;;;116.60;47.25;;;6.10;99.90;;;;;;5058261;28;20066;-60
2022/12/01 05:06:08;;;;;;;94.85;42.17;;;6.20;99.90;;;;;;5048153;28;20040;-60
2022/12/01 05:08:34;;;;;;;94.15;41.03;;;6.20;99.90;;;;;;5046392;28;20040;-60
2022/12/01 05:11:00;;;;;;;126.85;50.70;;;6.20;99.90;;;;;;5066573;28;20043;-59
2022/12/01 05:13:26;;;;;;;81.20;39.00;;;6.20;99.90;;;;;;5056385;28;20047;-59
2022/12/01 05:15:52;;;;;;;103.20;44.33;;;6.20;99.90;;;;;;5057981;28;20415;-60
2022/12/01 05:18:18;;;;;;;88.32;41.13;;;6.20;99.90;;;;;;5063875;28;20043;-60
2022/12/01 05:20:55;;;;;;;111.53;45.72;;;6.20;99.90;;;;;;5065361;28;20048;-59
2022/12/01 05:23:22;;;;;;;102.53;44.13;;;6.10;99.90;;;;;;5048361;28;20068;-60
2022/12/01 05:25:48;;;;;;;110.95;48.05;;;6.20;99.90;;;;;;5052629;28;20122;-60
2022/12/01 05:28:13;;;;;;;111.85;46.65;;;6.10;99.90;;;;;;5062911;28;20447;-60
2022/12/01 05:30:39;;;;;;;113.85;48.08;;;6.20;99.90;;;;;;5054288;28;20036;-60
2022/12/01 05:33:05;;;;;;;90.20;40.67;;;6.10;99.90;;;;;;5085007;28;20040;-60
2022/12/01 05:35:34;;;;;;;100.93;44.28;;;6.10;99.90;;;;;;5063540;28;20075;-60
2022/12/01 05:38:00;;;;;;;109.82;46.22;;;6.20;99.90;;;;;;5083978;28;20070;-60
2022/12/01 05:40:26;;;;;;;114.60;47.40;;;6.20;99.90;;;;;;5066181;28;20056;-60
2022/12/01 05:42:51;;;;;;;113.15;48.65;;;6.20;99.90;;;;;;5053326;28;20042;-59
2022/12/01 05:45:17;;;;;;;98.88;42.88;;;6.20;99.90;;;;;;5062781;28;20505;-60
2022/12/01 05:47:43;;;;;;;125.28;48.28;;;6.20;99.90;;;;;;5062746;28;20322;-60
2022/12/01 05:50:09;;;;;;;117.05;49.78;;;6.20;99.90;;;;;;5051012;28;20047;-60
2022/12/01 05:52:35;;;;;;;110.13;46.42;;;6.20;99.90;;;;;;5052179;28;20444;-60
2022/12/01 05:55:02;;;;;;;100.10;44.33;;;6.20;99.90;;;;;;5065404;28;20083;-58
2022/12/01 05:57:28;;;;;;;112.07;49.10;;;6.20;99.90;;;;;;5075903;28;20036;-60
2022/12/01 05:59:54;;;;;;;125.75;52.95;;;6.20;99.90;;;;;;5070132;28;20044;-60
2022/12/01 06:02:19;;;;;;;120.60;54.75;;;6.20;99.90;;;;;;5084005;28;20418;-59
2022/12/01 06:04:45;;;;;;;103.15;46.92;;;6.20;99.90;;;;;;5055275;28;20077;-60
2022/12/01 06:07:11;;;;;;;118.20;53.08;;;6.20;99.90;;;;;;5040163;28;20116;-60
2022/12/01 06:09:37;;;;;;;116.88;49.72;;;6.10;99.90;;;;;;5070101;28;20036;-60
2022/12/01 06:12:02;;;;;;;117.30;51.50;;;6.20;99.90;;;;;;5086929;28;20044;-60
2022/12/01 06:14:28;;;;;;;102.65;44.05;;;6.20;99.90;;;;;;5086876;28;20122;-60
2022/12/01 06:16:54;;;;;;;109.38;47.30;;;6.20;99.90;;;;;;5063745;28;20731;-60
2022/12/01 06:19:19;;;;;;;105.15;47.28;;;6.20;99.90;;;;;;5063888;28;20196;-59
2022/12/01 06:21:45;;;;;;;97.93;44.25;;;6.20;99.90;;;;;;5063571;28;20506;-60
2022/12/01 06:24:11;;;;;;;111.70;48.20;;;6.20;99.90;;;;;;5068212;28;20052;-60
2022/12/01 06:26:37;;;;;;;113.15;49.80;;;6.20;99.90;;;;;;5064618;28;20078;-60
2022/12/01 06:29:02;;;;;;;97.05;45.53;;;6.20;99.90;;;;;;5078190;28;20040;-59
2022/12/01 06:31:28;;;;;;;94.80;49.30;;;6.20;99.90;;;;;;5059640;28;20665;-60
2022/12/01 06:33:54;;;;;;;135.25;66.63;;;6.20;99.90;;;;;;5060934;28;20055;-60
2022/12/01 06:36:19;;;;;;;107.80;54.00;;;6.10;99.90;;;;;;5081151;28;20483;-60
2022/12/01 06:38:45;;;;;;;92.65;48.25;;;6.20;99.90;;;;;;5054501;28;20047;-60
2022/12/01 06:41:11;;;;;;;100.55;47.88;;;6.20;99.90;;;;;;5080702;28;20043;-60
2022/12/01 06:43:37;;;;;;;103.13;45.47;;;6.10;99.90;;;;;;5063633;28;20490;-60
2022/12/01 06:46:04;;;;;;;105.30;46.92;;;6.10;99.90;;;;;;5085331;22;20055;-60
2022/12/01 06:48:30;;;;;;;104.72;45.58;;;6.00;99.90;;;;;;5041402;28;20049;-60
2022/12/01 06:50:57;;;;;;;98.85;43.08;;;6.00;99.90;;;;;;5060223;28;20037;-58
2022/12/01 06:53:24;;;;;;;102.40;44.20;;;5.90;99.90;;;;;;5040221;28;20208;-59
2022/12/01 06:55:50;;;;;;;93.28;40.53;;;5.80;99.90;;;;;;5059231;28;20040;-59
2022/12/01 06:58:16;;;;;;;83.95;37.15;;;5.80;99.90;;;;;;5058506;28;20517;-59
2022/12/01 07:00:41;;;;;;;86.45;39.85;;;5.70;99.90;;;;;;5059709;28;20036;-60
2022/12/01 07:03:07;;;;;;;80.47;37.60;;;5.60;99.90;;;;;;5056579;28;20036;-60
2022/12/01 07:05:33;;;;;;;76.32;34.90;;;5.50;99.90;;;;;;5057881;28;20037;-58
2022/12/01 07:07:59;;;;;;;92.28;38.20;;;5.40;99.90;;;;;;5061610;28;20047;-59
2022/12/01 07:10:26;;;;;;;96.57;37.63;;;5.40;99.90;;;;;;5056210;28;20045;-59
2022/12/01 07:12:54;;;;;;;77.25;35.30;;;5.40;99.90;;;;;;5060995;28;20609;-60
2022/12/01 07:15:20;;;;;;;91.80;40.13;;;5.30;99.90;;;;;;5061208;28;20036;-58
2022/12/01 07:17:45;;;;;;;88.05;40.42;;;5.30;99.90;;;;;;5056685;28;20047;-59
2022/12/01 07:20:11;;;;;;;82.22;37.33;;;5.20;99.90;;;;;;5045488;28;20131;-59
2022/12/01 07:22:38;;;;;;;87.65;38.78;;;5.20;99.90;;;;;;5076188;28;20125;-59
2022/12/01 07:25:05;;;;;;;89.15;39.20;;;5.00;99.90;;;;;;5038973;28;20049;-59
2022/12/01 07:27:31;;;;;;;80.63;36.45;;;5.10;99.90;;;;;;5064932;28;20041;-59
2022/12/01 07:29:57;;;;;;;89.30;38.72;;;5.10;99.90;;;;;;5064005;28;20036;-58
2022/12/01 07:32:23;;;;;;;85.97;39.28;;;5.00;99.90;;;;;;5051283;28;20050;-59
2022/12/01 07:34:48;;;;;;;88.55;40.33;;;5.00;99.90;;;;;;5069451;22;20040;-58
2022/12/01 07:37:14;;;;;;;85.85;38.45;;;5.00;99.90;;;;;;5053867;28;20041;-57
2022/12/01 07:39:40;;;;;;;77.97;35.90;;;5.00;99.90;;;;;;5056694;28;20036;-57
2022/12/01 07:42:05;;;;;;;85.00;36.45;;;5.10;99.90;;;;;;5059089;28;20447;-57
2022/12/01 07:44:31;;;;;;;65.25;31.70;;;5.10;99.90;;;;;;5052240;28;20282;-58
2022/12/01 07:46:57;;;;;;;77.45;36.03;;;5.20;99.90;;;;;;5034601;28;20384;-56
2022/12/01 07:49:22;;;;;;;77.72;36.28;;;5.10;99.90;;;;;;5042565;28;20040;-57
2022/12/01 07:51:48;;;;;;;79.18;35.97;;;5.10;99.90;;;;;;5039625;28;20045;-57
2022/12/01 07:54:15;;;;;;;71.78;33.58;;;5.10;99.90;;;;;;5043571;28;20029;-57
2022/12/01 07:56:41;;;;;;;72.57;34.05;;;5.10;99.90;;;;;;5026146;28;20107;-57
2022/12/01 07:59:07;;;;;;;70.07;32.58;;;5.00;99.90;;;;;;5049779;28;20024;-58
2022/12/01 08:01:33;;;;;;;87.68;35.05;;;5.00;99.90;;;;;;5033843;28;20068;-57
2022/12/01 08:03:59;;;;;;;74.40;33.10;;;4.90;99.90;;;;;;5033537;28;20488;-56
2022/12/01 08:06:25;;;;;;;67.88;31.80;;;4.90;99.90;;;;;;5041128;28;20120;-57
2022/12/01 08:08:51;;;;;;;70.45;32.50;;;4.80;99.90;;;;;;5040572;28;20082;-57
2022/12/01 08:11:20;;;;;;;72.38;33.47;;;4.80;99.90;;;;;;5037785;28;20049;-58
2022/12/01 08:13:46;;;;;;;68.38;32.30;;;4.90;99.90;;;;;;5039349;28;20038;-57
2022/12/01 08:16:15;;;;;;;62.88;30.05;;;4.80;99.90;;;;;;5039040;28;20131;-57
2022/12/01 08:18:42;;;;;;;55.08;27.48;;;4.80;99.90;;;;;;5042021;28;20373;-57
2022/12/01 08:21:13;;;;;;;61.67;30.52;;;4.80;99.90;;;;;;5040844;28;20152;-56
2022/12/01 08:23:40;;;;;;;69.75;33.70;;;4.80;99.90;;;;;;5038876;28;20094;-57
2022/12/01 08:26:11;;;;;;;68.50;33.22;;;4.80;99.90;;;;;;5034320;28;20496;-58
2022/12/01 08:28:37;;;;;;;67.13;31.25;;;4.80;99.90;;;;;;5043067;28;20504;-57
2022/12/01 08:31:18;;;;;;;65.82;32.15;;;4.80;99.90;;;;;;5036818;28;20427;-57
2022/12/01 08:33:45;;;;;;;65.07;31.42;;;4.90;99.90;;;;;;5034367;28;20083;-57
2022/12/01 08:36:11;;;;;;;63.00;31.10;;;5.00;99.90;;;;;;5034579;28;20047;-57
2022/12/01 08:38:37;;;;;;;62.15;30.67;;;4.90;99.90;;;;;;5038475;28;20041;-58
2022/12/01 08:41:08;;;;;;;56.85;28.77;;;4.90;99.90;;;;;;5040063;28;20037;-58
2022/12/01 08:43:38;;;;;;;52.40;26.40;;;4.90;99.90;;;;;;5048720;28;20071;-57
2022/12/01 08:46:05;;;;;;;58.20;28.10;;;4.80;99.90;;;;;;5046356;28;20043;-58
2022/12/01 08:48:30;;;;;;;60.03;28.48;;;4.90;99.90;;;;;;5048933;28;20508;-57
2022/12/01 08:51:08;;;;;;;50.67;25.75;;;5.00;99.90;;;;;;5044996;28;20050;-57
2022/12/01 08:53:36;;;;;;;53.42;26.50;;;5.00;99.90;;;;;;5050246;28;20033;-56
2022/12/01 08:56:08;;;;;;;48.15;24.50;;;5.10;99.90;;;;;;5049277;28;20063;-57
2022/12/01 08:58:33;;;;;;;46.50;25.65;;;5.10;99.90;;;;;;5048267;28;20389;-57
2022/12/01 09:01:08;;;;;;;43.75;24.05;;;5.20;99.90;;;;;;5040884;28;20029;-57
2022/12/01 09:03:35;;;;;;;42.97;23.77;;;5.20;99.90;;;;;;5039137;28;20488;-57
2022/12/01 09:06:06;;;;;;;43.33;23.08;;;5.30;99.90;;;;;;5036852;28;20037;-57
2022/12/01 09:08:32;;;;;;;41.45;23.45;;;5.40;99.90;;;;;;5052647;28;20033;-57
2022/12/01 09:11:00;;;;;;;35.42;20.55;;;5.40;99.90;;;;;;5035201;28;20037;-56
2022/12/01 09:13:27;;;;;;;32.17;17.70;;;5.50;99.90;;;;;;5056259;28;20033;-56
2022/12/01 09:16:03;;;;;;;36.97;19.67;;;5.50;99.90;;;;;;5039646;28;20046;-57
2022/12/01 09:18:29;;;;;;;32.03;18.00;;;5.60;99.90;;;;;;5042698;28;20471;-57
2022/12/01 09:20:55;;;;;;;29.60;18.20;;;5.50;99.90;;;;;;5036613;28;20068;-57
2022/12/01 09:23:22;;;;;;;28.10;15.75;;;5.60;99.90;;;;;;5032036;28;20064;-57
2022/12/01 09:25:49;;;;;;;24.63;15.32;;;5.60;99.90;;;;;;5039883;28;20045;-58
2022/12/01 09:28:16;;;;;;;33.17;17.77;;;5.70;99.90;;;;;;5039957;28;20243;-57
2022/12/01 09:30:43;;;;;;;26.58;15.88;;;5.80;99.90;;;;;;5039735;28;20064;-58
2022/12/01 09:33:09;;;;;;;25.02;15.60;;;5.80;99.90;;;;;;5039837;28;20029;-57
2022/12/01 09:35:35;;;;;;;33.90;17.80;;;5.90;99.90;;;;;;5037305;28;20036;-57
2022/12/01 09:38:01;;;;;;;32.63;16.38;;;6.00;99.90;;;;;;5034772;28;20037;-57
2022/12/01 09:40:53;;;;;;;28.85;16.75;;;6.10;99.90;;;;;;5040805;28;20033;-57
2022/12/01 09:43:28;;;;;;;28.45;15.65;;;6.20;99.90;;;;;;5037747;28;20288;-57
2022/12/01 09:46:02;;;;;;;26.48;15.15;;;6.30;99.90;;;;;;5052455;28;20045;-55
2022/12/01 09:48:46;;;;;;;31.60;16.90;;;6.50;99.90;;;;;;5043584;28;20115;-58
2022/12/01 09:51:18;;;;;;;30.88;18.17;;;6.50;99.90;;;;;;5042133;28;20657;-57
2022/12/01 09:53:44;;;;;;;27.45;17.40;;;6.70;99.90;;;;;;5039376;28;20112;-58
2022/12/01 09:56:22;;;;;;;27.70;16.27;;;6.80;99.90;;;;;;5057401;28;20042;-57
2022/12/01 09:58:57;;;;;;;31.45;17.45;;;6.90;99.90;;;;;;5042327;28;20057;-57
2022/12/01 10:01:42;;;;;;;26.60;15.77;;;7.00;99.90;;;;;;5049118;28;20037;-57
2022/12/01 10:04:16;;;;;;;26.92;17.30;;;7.10;99.90;;;;;;5047710;28;20045;-58
2022/12/01 10:06:55;;;;;;;30.73;17.52;;;7.30;99.90;;;;;;5045596;28;20700;-57
2022/12/01 10:09:29;;;;;;;38.30;16.98;;;7.30;99.90;;;;;;5046496;28;20499;-58
2022/12/01 10:12:07;;;;;;;24.30;15.60;;;7.40;99.90;;;;;;5044315;28;20040;-56
2022/12/01 10:14:35;;;;;;;25.70;15.70;;;7.50;99.90;;;;;;5053905;28;20275;-57
2022/12/01 10:17:23;;;;;;;26.70;14.93;;;7.60;99.90;;;;;;5048679;28;20040;-57
2022/12/01 10:20:19;;;;;;;25.88;16.05;;;7.70;99.90;;;;;;5034165;28;20119;-58
2022/12/01 10:23:04;;;;;;;25.65;16.13;;;7.70;99.90;;;;;;5040044;28;20033;-57
2022/12/01 10:25:38;;;;;;;;;;;7.80;99.90;;;;;;5036938;28;20115;-57
2022/12/01 10:28:22;;;;;;;;;;;7.80;99.90;;;;;;5046854;28;20009;-57
2022/12/01 10:30:50;;;;;;;22.02;14.27;;;7.90;99.90;;;;;;5042621;28;20004;-55
2022/12/01 10:33:23;;;;;;;20.90;14.45;;;7.90;99.90;;;;;;5041814;28;20098;-57
2022/12/01 10:35:49;;;;;;;28.20;16.88;;;8.00;99.90;;;;;;5044157;28;20052;-55
2022/12/01 10:38:31;;;;;;;22.67;14.35;;;8.10;99.90;;;;;;5042077;28;20025;-58
2022/12/01 10:41:00;;;;;;;23.75;15.27;;;8.30;99.90;;;;;;5045031;28;20045;-58
2022/12/01 10:43:36;;;;;;;21.83;13.88;;;8.40;99.90;;;;;;5066083;28;20064;-58
2022/12/01 10:46:27;;;;;;;20.42;14.10;;;8.60;99.90;;;;;;5047086;28;20501;-57
2022/12/01 10:48:58;;;;;;;23.27;13.32;;;8.60;99.90;;;;;;5041975;28;20175;-57
2022/12/01 10:51:26;;;;;;;20.40;12.85;;;8.60;99.90;;;;;;5046795;28;20123;-58
2022/12/01 10:54:18;;;;;;;18.05;12.38;;;8.60;99.90;;;;;;5041707;28;20068;-57
2022/12/01 10:56:49;;;;;;;26.98;12.30;;;8.60;99.90;;;;;;5037842;28;20057;-56
2022/12/01 11:00:00;;;;;;;21.45;12.63;;;8.70;99.90;;;;;;5046996;28;20072;-57
2022/12/01 11:02:27;;;;;;;18.23;11.45;;;8.80;99.90;;;;;;5068193;28;20493;-58
2022/12/01 11:05:01;;;;;;;17.85;11.50;;;8.90;99.90;;;;;;5036701;28;20136;-56
2022/12/01 11:07:53;;;;;;;18.70;11.45;;;8.90;99.90;;;;;;5042561;28;20437;-57
2022/12/01 11:10:26;;;;;;;18.65;11.77;;;8.90;99.90;;;;;;5023002;28;20175;-58
2022/12/01 11:13:12;;;;;;;14.93;10.38;;;9.00;99.90;;;;;;5047645;28;20483;-57
2022/12/01 11:15:51;;;;;;;16.90;10.23;;;9.10;99.90;;;;;;5041689;28;20037;-59
2022/12/01 11:18:30;;;;;;;18.15;11.57;;;9.10;99.90;;;;;;5039893;28;20049;-57
2022/12/01 11:21:37;;;;;;;18.25;11.52;;;9.30;99.90;;;;;;5047053;28;20372;-56
2022/12/01 11:24:24;;;;;;;15.05;10.68;;;9.20;99.90;;;;;;5027476;28;20099;-57
2022/12/01 11:26:50;;;;;;;19.35;11.85;;;9.30;99.90;;;;;;5038646;28;20611;-57
2022/12/01 11:29:26;;;;;;;18.35;10.88;;;9.30;99.90;;;;;;5045841;28;20063;-57
2022/12/01 11:31:52;;;;;;;17.17;11.07;;;9.40;99.90;;;;;;5027200;28;20049;-57
2022/12/01 11:34:28;;;;;;;19.17;10.95;;;9.30;99.90;;;;;;5046318;28;20036;-57
2022/12/01 11:37:04;;;;;;;17.45;11.15;;;9.30;99.90;;;;;;5053761;28;20048;-57
2022/12/01 11:39:39;;;;;;;19.83;12.32;;;9.40;99.90;;;;;;5048335;28;20087;-58
2022/12/01 11:42:18;;;;;;;21.40;12.90;;;9.30;99.90;;;;;;5038691;28;20076;-58
2022/12/01 11:44:54;;;;;;;17.60;11.88;;;9.20;99.90;;;;;;5040618;28;20041;-58
2022/12/01 11:47:22;;;;;;;17.23;11.20;;;9.10;99.90;;;;;;5039499;28;20481;-58
2022/12/01 11:49:55;;;;;;;16.85;11.73;;;9.00;99.90;;;;;;5034396;28;20515;-58
2022/12/01 11:52:26;;;;;;;19.98;12.45;;;8.70;99.90;;;;;;5037165;28;20507;-57
2022/12/01 11:54:57;;;;;;;18.83;11.77;;;8.60;99.90;;;;;;5036228;28;20037;-56
2022/12/01 11:57:23;;;;;;;18.40;11.85;;;8.40;99.90;;;;;;5040733;28;20082;-58
2022/12/01 11:59:49;;;;;;;21.05;12.98;;;8.30;99.90;;;;;;5040422;28;20052;-58
2022/12/01 12:02:45;;;;;;;21.15;12.60;;;8.20;99.90;;;;;;5045168;28;20036;-58
2022/12/01 12:05:33;;;;;;;21.05;12.50;;;8.20;99.90;;;;;;5021119;28;20051;-58
2022/12/01 12:08:06;;;;;;;19.15;11.88;;;8.40;99.90;;;;;;5034283;28;20067;-58
2022/12/01 12:10:59;;;;;;;15.02;10.27;;;8.10;99.90;;;;;;5035673;28;20533;-58
2022/12/01 12:13:40;;;;;;;22.05;13.15;;;8.10;99.90;;;;;;5037973;28;20068;-58
2022/12/01 12:16:22;;;;;;;18.58;11.25;;;8.10;99.90;;;;;;5042903;28;20553;-57
2022/12/01 12:18:55;;;;;;;20.38;13.75;;;8.10;99.90;;;;;;5030006;28;20045;-59
2022/12/01 12:21:37;;;;;;;19.63;12.40;;;8.00;99.90;;;;;;5032336;28;20045;-58
2022/12/01 12:24:08;;;;;;;18.10;12.43;;;8.00;99.90;;;;;;5037548;28;20055;-57
2022/12/01 12:26:54;;;;;;;18.85;11.95;;;7.90;99.90;;;;;;5042595;28;20044;-58
2022/12/01 12:30:01;;;;;;;18.63;12.50;;;7.90;99.90;;;;;;5033230;28;20215;-56
2022/12/01 12:32:38;;;;;;;21.65;12.13;;;7.90;99.90;;;;;;5027582;28;20045;-58
2022/12/01 12:35:29;;;;;;;21.42;13.20;;;7.90;99.90;;;;;;5036866;28;20095;-57
2022/12/01 12:38:25;;;;;;;19.42;12.77;;;7.90;99.90;;;;;;5030748;28;20037;-58
2022/12/01 12:40:59;;;;;;;19.70;12.23;;;7.90;99.90;;;;;;5042866;28;20136;-57
2022/12/01 12:43:36;;;;;;;21.40;12.38;;;8.00;99.90;;;;;;5042341;28;20037;-57
2022/12/01 12:46:14;;;;;;;22.08;13.35;;;8.00;99.90;;;;;;5054820;28;21593;-57
2022/12/01 12:48:45;;;;;;;21.27;13.55;;;8.20;99.90;;;;;;5041090;28;20061;-58
2022/12/01 12:51:28;;;;;;;16.13;11.88;;;8.20;99.90;;;;;;5036203;28;20488;-57
2022/12/01 12:54:07;;;;;;;21.50;12.63;;;8.30;99.90;;;;;;5029016;28;20033;-56
2022/12/01 12:56:35;;;;;;;17.15;11.35;;;8.40;99.90;;;;;;5038658;28;20393;-58
2022/12/01 12:59:08;;;;;;;18.88;12.10;;;8.40;99.90;;;;;;5042445;28;20071;-56
2022/12/01 13:02:05;;;;;;;21.65;12.00;;;8.50;99.90;;;;;;5037121;28;20033;-58